Time;durP1;ratioP1;P1;durP2;ratioP2;P2;SDS_P1;SDS_P2;PMS_P1;PMS_P2;Temp;Humidity;BMP_temperature;BMP_pressure;BME280_temperature;BME280_humidity;BME280_pressure;Samples;Min_cycle;Max_cycle;Signal;HPM_P1;HPM_P2
2023/03/29 00:01:32;;;;;;;169.43;41.55;;;;;;;-2.70;59.74;99162.41;5049340;28;20120;-71
2023/03/29 00:03:59;;;;;;;196.25;44.95;;;;;;;-2.72;59.72;99170.66;5053188;28;20029;-71
2023/03/29 00:06:24;;;;;;;158.20;37.65;;;;;;;-2.74;59.60;99167.34;5048607;28;20036;-72
2023/03/29 00:08:52;;;;;;;120.40;28.38;;;;;;;-2.74;59.60;99171.88;5053235;28;20026;-72
2023/03/29 00:11:18;;;;;;;86.57;23.48;;;;;;;-2.76;59.70;99164.03;5061637;28;20024;-72
2023/03/29 00:13:44;;;;;;;77.20;21.88;;;;;;;-2.76;59.75;99164.03;5053350;28;20372;-72
2023/03/29 00:16:11;;;;;;;80.28;21.55;;;;;;;-2.78;59.64;99163.38;5063316;28;20032;-72
2023/03/29 00:18:37;;;;;;;69.00;19.60;;;;;;;-2.84;59.93;99161.47;5052325;28;20025;-72
2023/03/29 00:21:03;;;;;;;53.40;16.95;;;;;;;-2.85;59.89;99162.47;5052540;28;20061;-72
2023/03/29 00:23:28;;;;;;;42.65;14.05;;;;;;;-2.85;60.18;99165.16;5051149;28;20029;-72
2023/03/29 00:25:55;;;;;;;29.55;12.80;;;;;;;-2.86;60.50;99153.59;5055614;28;20079;-73
2023/03/29 00:28:20;;;;;;;33.63;13.50;;;;;;;-2.85;60.21;99155.25;5052718;28;20045;-72
2023/03/29 00:30:46;;;;;;;34.00;13.98;;;;;;;-2.85;60.40;99160.59;5052317;28;20100;-71
2023/03/29 00:33:12;;;;;;;35.30;14.18;;;;;;;-2.84;60.40;99156.91;5052492;28;20515;-72
2023/03/29 00:35:38;;;;;;;33.58;13.40;;;;;;;-2.83;60.61;99163.13;5052639;28;20052;-72
2023/03/29 00:38:05;;;;;;;34.53;13.85;;;;;;;-2.85;60.55;99152.56;5052493;28;20503;-71
2023/03/29 00:40:31;;;;;;;31.38;13.93;;;;;;;-2.85;60.90;99146.38;5052190;28;20083;-72
2023/03/29 00:42:57;;;;;;;35.28;13.93;;;;;;;-2.84;60.86;99153.41;5065066;28;20040;-72
2023/03/29 00:45:29;;;;;;;37.28;13.43;;;;;;;-2.87;60.66;99146.56;5072519;28;20503;-72
2023/03/29 00:48:01;;;;;;;35.83;14.13;;;;;;;-2.86;61.05;99150.06;5054027;28;20032;-72
2023/03/29 00:50:36;;;;;;;30.00;12.85;;;;;;;-2.86;60.89;99148.25;5072272;28;20032;-72
2023/03/29 00:53:16;;;;;;;30.20;11.88;;;;;;;-2.86;60.87;99136.66;5072350;28;20242;-72
2023/03/29 00:55:56;;;;;;;27.60;11.13;;;;;;;-2.86;61.12;99140.19;5072592;28;20071;-72
2023/03/29 00:58:32;;;;;;;25.92;11.50;;;;;;;-2.86;61.20;99140.19;5072081;28;20094;-73
2023/03/29 01:01:03;;;;;;;27.17;11.43;;;;;;;-2.85;61.03;99132.94;5065998;28;20088;-71
2023/03/29 01:03:44;;;;;;;28.98;12.02;;;;;;;-2.86;61.13;99131.28;5051697;28;20025;-71
2023/03/29 01:06:13;;;;;;;27.20;10.63;;;;;;;-2.86;61.37;99136.66;5051390;28;20036;-72
2023/03/29 01:08:44;;;;;;;25.52;10.95;;;;;;;-2.86;61.32;99131.28;5051856;28;20021;-72
2023/03/29 01:11:13;;;;;;;27.60;11.45;;;;;;;-2.86;61.39;99128.59;5051385;28;20649;-72
2023/03/29 01:13:47;;;;;;;28.43;11.47;;;;;;;-2.86;61.42;99121.41;5051590;28;20517;-72
2023/03/29 01:16:17;;;;;;;24.98;10.77;;;;;;;-2.88;61.44;99115.38;5049357;28;20639;-73
2023/03/29 01:18:43;;;;;;;27.48;11.60;;;;;;;-2.86;61.37;99120.53;5071289;28;20028;-72
2023/03/29 01:21:19;;;;;;;23.67;10.57;;;;;;;-2.89;61.48;99116.41;5070957;28;20046;-72
2023/03/29 01:23:53;;;;;;;20.98;9.75;;;;;;;-2.89;61.81;99112.88;5049813;28;20052;-72
2023/03/29 01:26:25;;;;;;;23.33;10.20;;;;;;;-2.91;61.54;99113.09;5046894;28;20043;-72
2023/03/29 01:29:22;;;;;;;25.05;10.73;;;;;;;-2.93;61.36;99107.06;5070931;28;20039;-72
2023/03/29 01:31:53;;;;;;;33.35;13.07;;;;;;;-2.94;61.79;99101.88;5052535;28;20032;-72
2023/03/29 01:34:26;;;;;;;41.50;16.65;;;;;;;-2.94;61.50;99112.63;5070965;28;20248;-73
2023/03/29 01:36:59;;;;;;;51.95;19.10;;;;;;;-2.99;61.90;99099.78;5054890;28;20028;-72
2023/03/29 01:39:25;;;;;;;45.75;17.52;;;;;;;-2.99;61.44;99105.97;5054468;28;20047;-72
2023/03/29 01:42:15;;;;;;;34.17;14.45;;;;;;;-3.02;61.72;99103.66;5056852;28;20371;-72
2023/03/29 01:45:09;;;;;;;30.05;14.05;;;;;;;-3.02;61.91;99100.16;5052244;28;20064;-72
2023/03/29 01:47:53;;;;;;;33.45;14.82;;;;;;;-3.04;61.56;99092.28;5068759;28;20055;-72
2023/03/29 01:50:43;;;;;;;34.10;14.82;;;;;;;-3.07;61.78;99090.03;5071467;28;20040;-73
2023/03/29 01:53:17;;;;;;;25.58;13.93;;;;;;;-3.07;61.91;99092.69;5071131;28;20066;-72
2023/03/29 01:55:49;;;;;;;26.48;12.75;;;;;;;-3.07;61.78;99100.75;5064285;28;20032;-72
2023/03/29 01:58:16;;;;;;;29.08;13.80;;;;;;;-3.07;61.88;99099.91;5050555;28;20029;-72
2023/03/29 02:00:44;;;;;;;27.50;13.30;;;;;;;-3.09;62.05;99101.94;5050982;28;20362;-73
2023/03/29 02:03:09;;;;;;;26.30;12.90;;;;;;;-3.11;61.71;99102.16;5050797;28;20489;-72
2023/03/29 02:05:37;;;;;;;40.47;17.27;;;;;;;-3.14;62.04;99099.84;5051037;28;20036;-71
2023/03/29 02:08:06;;;;;;;34.58;15.45;;;;;;;-3.14;62.11;99100.66;5050418;28;20532;-72
2023/03/29 02:10:32;;;;;;;29.05;14.52;;;;;;;-3.13;62.21;99109.56;5050444;28;20366;-72
2023/03/29 02:12:58;;;;;;;31.20;14.75;;;;;;;-3.12;62.20;99107.69;5050487;28;20025;-72
2023/03/29 02:15:24;;;;;;;28.85;13.38;;;;;;;-3.14;62.15;99103.34;5050787;28;20426;-72
2023/03/29 02:17:49;;;;;;;28.83;13.27;;;;;;;-3.14;62.49;99099.84;5050158;28;20025;-72
2023/03/29 02:20:19;;;;;;;27.85;12.45;;;;;;;-3.14;62.26;99103.34;5049094;28;20099;-73
2023/03/29 02:23:07;;;;;;;31.20;12.85;;;;;;;-3.16;62.30;99104.56;5050167;28;20031;-73
2023/03/29 02:25:33;;;;;;;22.95;10.90;;;;;;;-3.16;62.46;99105.41;5067196;28;20021;-73
2023/03/29 02:27:59;;;;;;;26.40;11.75;;;;;;;-3.16;62.77;99101.91;5070133;28;20464;-73
2023/03/29 02:30:31;;;;;;;22.75;11.75;;;;;;;-3.18;62.39;99096.69;5054959;28;20037;-73
2023/03/29 02:33:05;;;;;;;24.08;11.82;;;;;;;-3.19;62.32;99097.72;5048982;28;20052;-73
2023/03/29 02:35:35;;;;;;;24.65;12.07;;;;;;;-3.19;62.45;99096.91;5054286;28;20029;-73
2023/03/29 02:38:07;;;;;;;23.95;11.07;;;;;;;-3.20;62.06;99092.56;5050112;28;20029;-72
2023/03/29 02:40:36;;;;;;;22.02;11.32;;;;;;;-3.23;62.53;99101.81;5066307;28;20111;-73
2023/03/29 02:43:02;;;;;;;25.85;14.40;;;;;;;-3.25;62.20;99094.97;5069775;28;20059;-73
2023/03/29 02:45:29;;;;;;;29.27;15.77;;;;;;;-3.27;62.33;99107.75;5081931;28;20698;-73
2023/03/29 02:48:02;;;;;;;30.45;16.48;;;;;;;-3.33;62.33;99104.00;5068426;28;20028;-73
2023/03/29 02:50:31;;;;;;;33.40;16.90;;;;;;;-3.38;62.29;99109.09;5070358;28;20025;-73
2023/03/29 02:53:01;;;;;;;31.98;16.60;;;;;;;-3.45;62.76;99109.00;5070063;28;20029;-72
2023/03/29 02:55:33;;;;;;;32.45;14.82;;;;;;;-3.47;62.29;99109.19;5070259;28;20020;-73
2023/03/29 02:58:07;;;;;;;34.28;16.25;;;;;;;-3.50;62.53;99106.06;5068510;28;20032;-73
2023/03/29 03:00:37;;;;;;;34.90;15.57;;;;;;;-3.53;62.98;99104.59;5070715;28;20059;-73
2023/03/29 03:03:06;;;;;;;38.30;16.50;;;;;;;-3.53;62.89;99103.78;5069758;28;20025;-73
2023/03/29 03:05:32;;;;;;;35.45;16.17;;;;;;;-3.55;62.58;99103.94;5070297;28;20032;-73
2023/03/29 03:07:58;;;;;;;38.65;15.85;;;;;;;-3.56;62.87;99102.28;5071360;28;20028;-73
2023/03/29 03:10:23;;;;;;;35.05;16.10;;;;;;;-3.57;63.32;99092.56;5071359;28;20362;-72
2023/03/29 03:12:49;;;;;;;35.78;15.25;;;;;;;-3.56;63.04;99094.22;5069849;28;20044;-73
2023/03/29 03:15:14;;;;;;;36.28;16.50;;;;;;;-3.59;62.98;99098.13;5070139;28;20025;-73
2023/03/29 03:17:40;;;;;;;35.03;16.23;;;;;;;-3.57;63.15;99092.56;5069459;28;20024;-73
2023/03/29 03:20:13;;;;;;;30.55;15.18;;;;;;;-3.58;63.01;99096.28;5069696;28;20027;-73
2023/03/29 03:22:47;;;;;;;31.05;14.55;;;;;;;-3.57;62.91;99092.56;5069706;28;20472;-72
2023/03/29 03:25:13;;;;;;;33.38;15.98;;;;;;;-3.58;62.93;99093.59;5085952;28;20107;-72
2023/03/29 03:27:40;;;;;;;34.80;14.63;;;;;;;-3.61;63.00;99094.81;5088992;28;20488;-73
2023/03/29 03:30:06;;;;;;;34.45;15.80;;;;;;;-3.62;63.14;99101.19;5090090;28;20428;-73
2023/03/29 03:32:33;;;;;;;33.28;15.93;;;;;;;-3.61;63.27;99097.50;5090054;28;20047;-73
2023/03/29 03:34:59;;;;;;;30.92;14.90;;;;;;;-3.62;63.02;99101.19;5087723;28;20108;-73
2023/03/29 03:37:25;;;;;;;38.83;15.98;;;;;;;-3.62;63.26;99092.31;5069441;28;20547;-73
2023/03/29 03:39:50;;;;;;;32.45;15.05;;;;;;;-3.63;63.28;99102.22;5070805;28;20032;-72
2023/03/29 03:42:17;;;;;;;32.67;15.70;;;;;;;-3.64;63.04;99099.69;5075380;28;20408;-72
2023/03/29 03:44:43;;;;;;;31.75;15.48;;;;;;;-3.65;63.55;99098.03;5093718;28;20067;-72
2023/03/29 03:47:09;;;;;;;33.97;15.88;;;;;;;-3.68;62.91;99091.22;5093243;28;20115;-72
2023/03/29 03:49:34;;;;;;;31.40;14.75;;;;;;;-3.66;63.03;99096.38;5093596;28;20512;-73
2023/03/29 03:52:00;;;;;;;30.30;15.35;;;;;;;-3.67;63.07;99084.03;5093393;28;20115;-73
2023/03/29 03:54:26;;;;;;;36.08;16.33;;;;;;;-3.67;63.26;99092.06;5093736;28;20369;-73
2023/03/29 03:56:51;;;;;;;35.85;17.42;;;;;;;-3.70;63.30;99089.75;5093271;28;20040;-72
2023/03/29 03:59:17;;;;;;;35.72;17.33;;;;;;;-3.74;63.28;99090.13;5075069;28;20036;-73
2023/03/29 04:01:42;;;;;;;37.58;19.80;;;;;;;-3.76;63.52;99094.00;5092978;28;20059;-73
2023/03/29 04:04:11;;;;;;;44.67;23.80;;;;;;;-3.80;63.15;99088.19;5093328;28;20084;-73
2023/03/29 04:06:37;;;;;;;41.33;23.15;;;;;;;-3.81;63.36;99091.03;5093347;28;20064;-73
2023/03/29 04:09:03;;;;;;;48.72;24.33;;;;;;;-3.83;63.35;99082.34;5075040;28;20031;-73
2023/03/29 04:11:29;;;;;;;45.78;23.10;;;;;;;-3.87;63.44;99084.59;5093070;28;20087;-73
2023/03/29 04:13:54;;;;;;;42.25;22.17;;;;;;;-3.87;63.19;99091.81;5092734;28;20063;-73
2023/03/29 04:16:19;;;;;;;38.53;20.75;;;;;;;-3.90;63.70;99085.81;5091851;28;20066;-73
2023/03/29 04:18:45;;;;;;;42.85;23.10;;;;;;;-3.89;63.76;99083.94;5074763;28;20093;-73
2023/03/29 04:21:11;;;;;;;50.15;24.45;;;;;;;-3.90;64.35;99084.97;5073968;28;20028;-73
2023/03/29 04:23:36;;;;;;;89.57;41.92;;;;;;;-3.91;64.16;99077.94;5092712;28;20114;-73
2023/03/29 04:26:02;;;;;;;106.20;42.40;;;;;;;-3.89;64.12;99089.31;5074925;28;20045;-73
2023/03/29 04:28:27;;;;;;;72.43;32.58;;;;;;;-3.90;64.00;99079.59;5092347;28;20035;-71
2023/03/29 04:30:52;;;;;;;57.88;28.23;;;;;;;-3.86;64.09;99082.72;5092891;28;20035;-73
2023/03/29 04:33:18;;;;;;;54.55;26.80;;;;;;;-3.85;64.64;99074.50;5093048;28;20036;-73
2023/03/29 04:35:43;;;;;;;50.83;27.73;;;;;;;-3.83;64.35;99075.16;5092998;28;20394;-73
2023/03/29 04:38:10;;;;;;;46.30;25.00;;;;;;;-3.82;64.53;99079.50;5074792;28;20383;-73
2023/03/29 04:40:37;;;;;;;45.88;25.05;;;;;;;-3.83;64.18;99074.31;5092190;28;20024;-73
2023/03/29 04:43:03;;;;;;;38.55;19.55;;;;;;;-3.81;64.56;99081.16;5092133;28;20081;-72
2023/03/29 04:45:28;;;;;;;37.75;18.50;;;;;;;-3.82;64.41;99079.50;5074394;28;20111;-73
2023/03/29 04:48:00;;;;;;;32.78;17.25;;;;;;;-3.82;64.31;99084.88;5092124;28;20028;-74
2023/03/29 04:50:26;;;;;;;31.85;17.85;;;;;;;-3.79;64.57;99086.31;5074367;28;20211;-72
2023/03/29 04:52:51;;;;;;;36.28;18.63;;;;;;;-3.80;64.72;99079.31;5091974;28;20177;-73
2023/03/29 04:55:17;;;;;;;33.90;17.63;;;;;;;-3.82;64.78;99084.03;5092482;28;20149;-73
2023/03/29 04:57:45;;;;;;;31.83;17.35;;;;;;;-3.81;65.03;99088.34;5092114;28;20111;-72
2023/03/29 05:00:15;;;;;;;37.70;18.05;;;;;;;-3.82;64.22;99082.19;5092370;28;20028;-74
2023/03/29 05:02:42;;;;;;;38.65;19.23;;;;;;;-3.80;64.94;99085.50;5092208;28;20103;-73
2023/03/29 05:05:09;;;;;;;39.63;20.10;;;;;;;-3.79;64.58;99080.97;5092127;28;20074;-73
2023/03/29 05:07:34;;;;;;;39.05;19.13;;;;;;;-3.78;64.91;99085.31;5091564;28;20197;-73
2023/03/29 05:10:00;;;;;;;33.75;17.88;;;;;;;-3.72;65.04;99089.09;5091989;28;20210;-73
2023/03/29 05:12:25;;;;;;;40.08;20.63;;;;;;;-3.68;64.72;99077.81;5073825;28;20499;-73
2023/03/29 05:14:51;;;;;;;38.70;18.85;;;;;;;-3.65;65.09;99081.94;5091952;28;20040;-73
2023/03/29 05:17:16;;;;;;;36.95;18.95;;;;;;;-3.63;64.65;99078.09;5091716;28;20365;-73
2023/03/29 05:19:42;;;;;;;34.83;18.50;;;;;;;-3.62;64.96;99082.41;5074208;28;20524;-73
2023/03/29 05:22:08;;;;;;;38.67;20.02;;;;;;;-3.62;64.61;99077.06;5056225;28;20025;-73
2023/03/29 05:24:34;;;;;;;33.65;19.15;;;;;;;-3.56;64.76;99080.81;5073781;28;20114;-73
2023/03/29 05:26:59;;;;;;;38.92;19.90;;;;;;;-3.53;65.14;99076.94;5091615;28;20062;-73
2023/03/29 05:29:25;;;;;;;37.28;19.35;;;;;;;-3.52;65.01;99082.13;5091826;28;20028;-73
2023/03/29 05:31:51;;;;;;;41.63;22.77;;;;;;;-3.47;65.33;99085.06;5091620;28;20134;-73
2023/03/29 05:34:17;;;;;;;50.78;26.42;;;;;;;-3.44;65.13;99090.06;5092027;28;20460;-74
2023/03/29 05:36:44;;;;;;;61.00;27.27;;;;;;;-3.39;65.28;99094.84;5091325;28;20031;-73
2023/03/29 05:39:09;;;;;;;54.55;24.15;;;;;;;-3.37;65.09;99089.28;5091531;28;20115;-73
2023/03/29 05:41:35;;;;;;;47.72;21.83;;;;;;;-3.32;64.94;99093.06;5090969;28;20103;-73
2023/03/29 05:44:01;;;;;;;43.60;20.00;;;;;;;-3.29;65.15;99086.50;5070052;28;20051;-73
2023/03/29 05:46:26;;;;;;;41.65;19.88;;;;;;;-3.25;65.33;99090.44;5053535;28;20108;-73
2023/03/29 05:48:52;;;;;;;44.17;22.10;;;;;;;-3.20;65.23;99092.56;5054110;28;20020;-73
2023/03/29 05:51:18;;;;;;;41.42;21.65;;;;;;;-3.16;65.39;99088.47;5068175;28;20028;-73
2023/03/29 05:53:44;;;;;;;38.08;19.45;;;;;;;-3.09;65.79;99083.16;5060108;28;20108;-73
2023/03/29 05:56:10;;;;;;;37.72;19.77;;;;;;;-3.03;65.75;99080.53;5054182;28;20029;-73
2023/03/29 05:58:37;;;;;;;42.63;19.48;;;;;;;-2.97;65.73;99083.47;5058836;28;20108;-72
2023/03/29 06:01:04;;;;;;;44.40;21.83;;;;;;;-2.93;65.54;99084.75;5063887;28;20062;-73
2023/03/29 06:03:29;;;;;;;39.28;19.35;;;;;;;-2.88;65.32;99085.84;5064276;28;20102;-73
2023/03/29 06:06:01;;;;;;;37.63;19.25;;;;;;;-2.81;65.08;99087.75;5060724;28;20474;-73
2023/03/29 06:08:27;;;;;;;38.55;19.40;;;;;;;-2.76;65.71;99096.91;5061153;28;20025;-73
2023/03/29 06:11:07;;;;;;;38.42;21.20;;;;;;;-2.70;65.65;99074.63;5061862;28;20095;-73
2023/03/29 06:13:33;;;;;;;34.97;17.48;;;;;;;-2.61;65.62;99082.53;5045893;28;20060;-73
2023/03/29 06:15:59;;;;;;;35.85;17.60;;;;;;;-2.55;65.41;99089.81;5060162;28;20052;-73
2023/03/29 06:18:26;;;;;;;35.30;16.42;;;;;;;-2.49;65.41;99088.22;5052033;28;20029;-72
2023/03/29 06:20:52;;;;;;;34.25;17.75;;;;;;;-2.45;65.49;99076.88;5058565;28;20101;-73
2023/03/29 06:23:19;;;;;;;36.92;19.08;;;;;;;-2.35;65.20;99081.91;5058404;28;20021;-72
2023/03/29 06:25:45;;;;;;;31.35;14.60;;;;;;;-2.27;65.25;99087.13;5049313;28;20039;-72
2023/03/29 06:28:14;;;;;;;34.00;17.05;;;;;;;-2.19;65.05;99082.63;5059125;28;20029;-72
2023/03/29 06:30:40;;;;;;;32.10;17.45;;;;;;;-2.10;65.08;99084.94;5059738;28;20041;-71
2023/03/29 06:33:07;;;;;;;30.15;15.98;;;;;;;-2.00;65.31;99084.56;5059709;28;20028;-71
2023/03/29 06:35:33;;;;;;;36.75;18.30;;;;;;;-1.91;65.14;99087.09;5061242;28;20034;-74
2023/03/29 06:37:59;;;;;;;34.72;16.50;;;;;;;-1.84;64.82;99091.50;5071639;28;20432;-73
2023/03/29 06:40:26;;;;;;;31.60;15.55;;;;;;;-1.76;64.93;99086.97;5057285;28;20024;-71
2023/03/29 06:42:56;;;;;;;30.67;16.10;;;;;;;-1.68;65.05;99087.63;5064582;28;20067;-73
2023/03/29 06:45:34;;;;;;;31.08;16.05;;;;;;;-1.59;64.97;99088.28;5048788;28;20441;-73
2023/03/29 06:47:59;;;;;;;32.25;16.55;;;;;;;-1.48;64.82;99096.81;5050091;28;20029;-74
2023/03/29 06:50:25;;;;;;;32.65;16.50;;;;;;;-1.43;64.66;99097.84;5054033;28;20358;-73
2023/03/29 06:52:51;;;;;;;29.83;14.13;;;;;;;-1.34;64.46;99098.50;5070523;28;20431;-74
2023/03/29 06:55:17;;;;;;;34.70;16.00;;;;;;;-1.23;64.54;99094.41;5068405;28;20074;-76
2023/03/29 06:57:43;;;;;;;33.40;15.93;;;;;;;-1.13;64.67;99094.81;5054230;28;20033;-73
2023/03/29 07:00:28;;;;;;;28.08;13.70;;;;;;;-1.02;64.44;99090.72;5050542;28;20028;-75
2023/03/29 07:02:56;;;;;;;27.05;11.88;;;;;;;-0.91;64.02;99090.09;5064533;28;20029;-78
2023/03/29 07:05:22;;;;;;;25.60;10.93;;;;;;;-0.82;64.19;99087.19;5054297;28;20112;-75
2023/03/29 07:08:12;;;;;;;24.77;11.40;;;;;;;-0.71;64.10;99089.28;5069273;28;20116;-75
2023/03/29 07:10:51;;;;;;;23.77;10.98;;;;;;;-0.57;63.71;99089.25;5058172;28;20020;-75
2023/03/29 07:13:17;;;;;;;21.53;9.67;;;;;;;-0.46;63.62;99091.34;5062116;28;20032;-73
2023/03/29 07:15:43;;;;;;;22.15;10.73;;;;;;;-0.37;62.75;99082.00;5055191;28;20024;-73
2023/03/29 07:18:11;;;;;;;20.30;9.80;;;;;;;-0.27;63.29;99086.97;5066022;28;20035;-74
2023/03/29 07:20:37;;;;;;;19.48;9.13;;;;;;;-0.16;63.14;99085.47;5054581;28;20046;-75
2023/03/29 07:23:04;;;;;;;21.00;9.05;;;;;;;-0.06;62.79;99085.88;5057464;28;20036;-75
2023/03/29 07:25:31;;;;;;;19.83;9.90;;;;;;;0.06;62.66;99085.25;5060838;28;20388;-76
2023/03/29 07:27:56;;;;;;;21.00;9.05;;;;;;;0.16;62.40;99074.00;5062589;28;20028;-76
2023/03/29 07:30:26;;;;;;;19.80;10.60;;;;;;;0.27;62.30;99084.13;5055384;28;20454;-75
2023/03/29 07:32:52;;;;;;;;;;;;;;;0.37;62.57;99083.66;5073336;28;20043;-75
2023/03/29 07:35:18;;;;;;;21.50;8.50;;;;;;;0.46;61.82;99084.25;5069660;28;19912;-72
2023/03/29 07:37:44;;;;;;;26.58;9.48;;;;;;;0.54;62.07;99090.25;5059364;28;20025;-73
2023/03/29 07:40:17;;;;;;;19.80;8.30;;;;;;;0.62;61.99;99082.91;5054311;28;20032;-75
2023/03/29 07:42:45;;;;;;;16.48;8.55;;;;;;;0.70;61.30;99080.81;5071681;28;20067;-75
2023/03/29 07:45:13;;;;;;;16.52;7.45;;;;;;;0.76;61.61;99084.50;5072527;28;20119;-75
2023/03/29 07:47:42;;;;;;;13.70;6.68;;;;;;;0.86;61.38;99081.34;5054071;28;20037;-74
2023/03/29 07:50:08;;;;;;;14.07;7.32;;;;;;;0.95;60.67;99087.31;5054297;28;20461;-75
2023/03/29 07:52:37;;;;;;;13.13;7.32;;;;;;;1.01;60.56;99081.88;5060151;28;20037;-78
2023/03/29 07:55:06;;;;;;;14.85;6.93;;;;;;;1.12;61.16;99084.91;5056256;28;20603;-76
2023/03/29 07:57:31;;;;;;;16.40;7.95;;;;;;;1.20;60.62;99076.56;5069224;28;20598;-77
2023/03/29 07:59:56;;;;;;;15.82;7.63;;;;;;;1.27;59.42;99080.00;5063662;28;20032;-78
2023/03/29 08:02:22;;;;;;;16.52;8.18;;;;;;;1.32;59.12;99076.66;5049573;28;20025;-75
2023/03/29 08:04:47;;;;;;;21.27;10.23;;;;;;;1.38;60.35;99075.78;5058768;28;20069;-74
2023/03/29 08:07:14;;;;;;;16.58;7.68;;;;;;;1.46;60.03;99070.06;5056942;28;20477;-74
2023/03/29 08:09:40;;;;;;;16.25;8.55;;;;;;;1.55;59.55;99061.69;5061101;28;20434;-74
2023/03/29 08:12:06;;;;;;;16.15;8.02;;;;;;;1.64;60.20;99066.59;5060895;28;20112;-74
2023/03/29 08:14:32;;;;;;;17.15;8.20;;;;;;;1.70;59.99;99059.47;5064382;28;20089;-76
2023/03/29 08:16:57;;;;;;;13.43;7.03;;;;;;;1.80;59.05;99058.13;5049937;28;20420;-76
2023/03/29 08:19:23;;;;;;;12.75;6.30;;;;;;;1.90;59.19;99064.69;5050785;28;20075;-75
2023/03/29 08:21:48;;;;;;;18.13;7.15;;;;;;;2.01;59.41;99059.56;5061275;28;20111;-74
2023/03/29 08:24:13;;;;;;;14.73;6.90;;;;;;;2.10;58.27;99052.78;5063405;28;20035;-74
2023/03/29 08:26:39;;;;;;;14.98;9.90;;;;;;;2.18;59.19;99048.97;5066042;28;20441;-75
2023/03/29 08:29:05;;;;;;;14.13;7.30;;;;;;;2.26;58.88;99062.19;5067104;28;20032;-75
2023/03/29 08:31:31;;;;;;;10.63;5.57;;;;;;;2.33;58.25;99051.28;5068739;28;20120;-74
2023/03/29 08:33:56;;;;;;;9.20;4.75;;;;;;;2.40;57.81;99053.91;5058534;28;20116;-75
2023/03/29 08:36:22;;;;;;;10.20;5.65;;;;;;;2.45;57.32;99044.03;5057752;28;20063;-74
2023/03/29 08:38:49;;;;;;;9.50;4.78;;;;;;;2.50;58.17;99049.59;5057274;28;20061;-76
2023/03/29 08:41:39;;;;;;;9.63;4.57;;;;;;;2.58;58.23;99045.75;5052447;28;20037;-75
2023/03/29 08:44:33;;;;;;;12.38;5.25;;;;;;;2.69;57.42;99046.84;5090138;28;20036;-74
2023/03/29 08:47:16;;;;;;;12.10;4.75;;;;;;;2.80;57.10;99050.66;5088530;28;20040;-77
2023/03/29 08:49:45;;;;;;;10.23;4.28;;;;;;;2.91;56.93;99049.03;5090172;28;20125;-76
2023/03/29 08:52:37;;;;;;;13.32;6.25;;;;;;;2.98;56.33;99042.47;5088343;28;20031;-76
2023/03/29 08:55:21;;;;;;;7.68;4.65;;;;;;;3.11;56.18;99041.44;5090630;28;20028;-75
2023/03/29 08:57:49;;;;;;;8.73;4.50;;;;;;;3.20;56.65;99043.81;5089776;28;20032;-76
2023/03/29 09:00:41;;;;;;;6.20;4.05;;;;;;;3.25;55.57;99035.81;5088800;28;20016;-74
2023/03/29 09:03:21;;;;;;;8.10;4.35;;;;;;;3.33;55.01;99031.91;5090422;28;20028;-76
2023/03/29 09:05:50;;;;;;;8.13;4.10;;;;;;;3.45;55.15;99040.03;5087002;28;20028;-74
2023/03/29 09:08:18;;;;;;;5.67;3.63;;;;;;;3.52;55.01;99038.88;5090892;28;20114;-74
2023/03/29 09:10:57;;;;;;;10.38;4.00;;;;;;;3.61;55.31;99035.81;5091001;28;20047;-74
2023/03/29 09:13:45;;;;;;;9.30;5.05;;;;;;;3.69;55.12;99035.44;5091647;28;20041;-72
2023/03/29 09:16:13;;;;;;;7.68;3.15;;;;;;;3.81;53.66;99030.00;5090598;28;20034;-74
2023/03/29 09:18:44;;;;;;;8.73;4.00;;;;;;;3.92;54.23;99020.19;5089089;28;20580;-74
2023/03/29 09:21:13;;;;;;;7.43;4.07;;;;;;;4.05;53.71;99013.69;5071438;28;20056;-75
2023/03/29 09:24:09;;;;;;;6.50;3.95;;;;;;;4.14;53.69;99013.09;5089514;28;20035;-75
2023/03/29 09:26:40;;;;;;;6.82;3.40;;;;;;;4.27;53.27;99014.69;5087823;28;20040;-76
2023/03/29 09:29:38;;;;;;;5.63;3.28;;;;;;;4.37;52.71;99008.63;5087536;28;20036;-75
2023/03/29 09:32:11;;;;;;;5.32;2.85;;;;;;;4.52;51.11;99012.72;5030534;28;20039;-73
2023/03/29 09:34:52;;;;;;;6.97;3.85;;;;;;;4.59;51.11;99005.25;5091235;28;20027;-73
2023/03/29 09:37:26;;;;;;;6.47;3.72;;;;;;;4.71;52.08;99007.91;5089451;28;20028;-74
2023/03/29 09:39:52;;;;;;;4.95;2.50;;;;;;;4.80;51.75;99016.47;5072451;28;20085;-74
2023/03/29 09:42:18;;;;;;;6.95;3.75;;;;;;;4.84;51.01;99012.19;5085827;28;20048;-72
2023/03/29 09:44:49;;;;;;;6.68;3.25;;;;;;;4.88;51.22;99011.50;5070324;28;20032;-73
2023/03/29 09:47:27;;;;;;;6.20;3.50;;;;;;;4.94;51.38;99000.69;5056827;28;20029;-73
2023/03/29 09:49:58;;;;;;;5.45;2.90;;;;;;;4.97;51.03;99011.91;5050315;28;20553;-74
2023/03/29 09:52:23;;;;;;;6.10;3.35;;;;;;;4.98;50.64;99008.09;5066233;28;20404;-74
2023/03/29 09:54:49;;;;;;;6.10;3.60;;;;;;;5.03;47.38;99010.06;5056935;28;20044;-72
2023/03/29 09:57:17;;;;;;;5.07;2.47;;;;;;;5.02;49.00;99011.16;5065698;28;20039;-74
2023/03/29 09:59:48;;;;;;;4.15;2.22;;;;;;;5.01;49.24;99010.34;5051476;28;20082;-74
2023/03/29 10:02:14;;;;;;;7.40;4.05;;;;;;;5.04;48.46;98996.25;5062983;28;20492;-74
2023/03/29 10:04:41;;;;;;;5.35;2.75;;;;;;;5.15;45.73;98990.97;5066112;28;20040;-74
2023/03/29 10:07:15;;;;;;;5.55;3.65;;;;;;;5.23;47.22;98996.00;5060867;28;20062;-73
2023/03/29 10:09:42;;;;;;;4.32;3.10;;;;;;;5.34;47.40;98986.94;5054236;28;20024;-74
2023/03/29 10:12:10;;;;;;;7.00;3.30;;;;;;;5.43;48.07;98983.78;5064003;28;20114;-73
2023/03/29 10:14:41;;;;;;;7.97;3.83;;;;;;;5.56;47.61;98994.31;5056146;28;20119;-73
2023/03/29 10:17:20;;;;;;;6.13;3.17;;;;;;;5.67;47.94;98981.69;5044302;28;20086;-73
2023/03/29 10:19:57;;;;;;;5.47;3.00;;;;;;;5.73;47.70;98979.84;5048573;28;20421;-74
2023/03/29 10:22:31;;;;;;;4.68;2.80;;;;;;;5.80;47.95;98975.06;5052009;28;20032;-75
2023/03/29 10:24:57;;;;;;;14.32;7.72;;;;;;;5.84;47.90;98965.31;5066217;28;20113;-74
2023/03/29 10:27:25;;;;;;;14.00;6.70;;;;;;;5.90;48.02;98974.34;5065430;28;20068;-74
2023/03/29 10:29:52;;;;;;;10.05;4.85;;;;;;;5.98;48.69;98971.19;5055631;28;20036;-73
2023/03/29 10:32:22;;;;;;;7.97;4.57;;;;;;;6.08;48.46;98968.63;5067340;28;21262;-73
2023/03/29 10:34:49;;;;;;;9.35;4.43;;;;;;;6.16;48.49;98967.34;5055974;28;20036;-72
2023/03/29 10:37:19;;;;;;;9.65;5.32;;;;;;;6.24;46.94;98963.34;5050641;28;20029;-73
2023/03/29 10:39:46;;;;;;;;;;;;;;;6.32;48.62;98962.06;5068052;28;20039;-73
2023/03/29 10:42:15;;;;;;;8.40;5.07;;;;;;;6.32;48.35;98960.19;5060974;28;19923;-73
2023/03/29 10:44:41;;;;;;;6.60;4.68;;;;;;;6.33;48.07;98966.44;5060317;28;20051;-73
2023/03/29 10:47:13;;;;;;;7.05;4.65;;;;;;;6.33;48.44;98955.53;5059870;28;20040;-73
2023/03/29 10:49:45;;;;;;;4.93;3.05;;;;;;;6.37;45.97;98948.50;5052734;28;20100;-74
2023/03/29 10:52:13;;;;;;;5.18;2.80;;;;;;;6.33;47.77;98945.47;5059489;28;20078;-74
2023/03/29 10:54:39;;;;;;;6.93;4.40;;;;;;;6.35;47.89;98954.22;5069657;28;20039;-74
2023/03/29 10:57:09;;;;;;;4.78;2.92;;;;;;;6.42;47.52;98945.84;5065643;28;20112;-74
2023/03/29 11:00:02;;;;;;;5.57;3.00;;;;;;;6.45;47.76;98937.16;5059852;28;20386;-74
2023/03/29 11:02:45;;;;;;;5.03;3.60;;;;;;;6.55;47.19;98920.91;5056440;28;20112;-74
2023/03/29 11:05:52;;;;;;;6.57;3.65;;;;;;;6.66;46.91;98919.09;5053205;28;20710;-74
2023/03/29 11:08:36;;;;;;;4.78;2.80;;;;;;;6.74;47.27;98911.53;4986432;28;20439;-74
2023/03/29 11:11:09;;;;;;;9.02;4.05;;;;;;;6.86;48.00;98909.44;5044075;28;20481;-71
2023/03/29 11:13:47;;;;;;;9.00;3.88;;;;;;;7.00;48.51;98901.63;5050286;28;20062;-73
2023/03/29 11:16:40;;;;;;;4.40;3.10;;;;;;;7.17;47.21;98896.03;5069332;28;20093;-72
2023/03/29 11:19:05;;;;;;;7.10;3.30;;;;;;;7.31;47.79;98899.09;5049288;28;20025;-78
2023/03/29 11:22:04;;;;;;;6.35;3.65;;;;;;;7.42;47.54;98889.91;5064416;28;20043;-71
2023/03/29 11:24:47;;;;;;;5.47;3.15;;;;;;;7.64;47.52;98888.09;5061609;28;20366;-71
2023/03/29 11:27:13;;;;;;;4.88;3.63;;;;;;;7.86;47.10;98893.38;5064648;28;20136;-71
2023/03/29 11:29:55;;;;;;;8.43;4.90;;;;;;;7.98;46.83;98885.75;5064729;28;20458;-71
2023/03/29 11:32:33;;;;;;;7.82;3.70;;;;;;;8.15;46.50;98884.69;5057255;28;20100;-71
2023/03/29 11:34:58;;;;;;;7.18;2.90;;;;;;;8.27;46.31;98877.09;5055244;28;20024;-71
2023/03/29 11:37:55;;;;;;;6.63;2.83;;;;;;;8.51;46.74;98873.84;5052638;28;20508;-72